Washingtonville, Pennsylvania
Current Conditions -  °F | °C
As of 2:54 PM on Thursday 30 Oct 2014 (Local Time) from KIPT Reporting Station
Broken Clouds Broken Clouds  
Wind Chill: 54°   Ceiling: 4900
Heat Index: 54°   Visibility: 10mi
Dew Point: 33°   Wind: 9mph
Humidity: 45%   Direction: 320°NW
Pressure: 30.01"   Gusts: NA
Location:  41.05°N, 76.67°W
Report Text: KIPT 301854Z 32008KT 10SM BKN049 12/01 A3001 RMK AO2 SLP164 T01220006
Loading
Personal Weather Stations






























Interactive Weather Map
Tropical Storm Tracking
New forecast layout! Learn more

10-Day Weather Forecast

Advertisements
Track Severe Weather on mobile